sensor_id;sensor_type;location;lat;lon;timestamp;temperature;humidity
71367;DHT22;60030;52.274;8.040;2022-07-15T00:02:14;17.10;99.90
71367;DHT22;60030;52.274;8.040;2022-07-15T00:04:41;17.10;99.90
71367;DHT22;60030;52.274;8.040;2022-07-15T00:07:09;17.00;99.90
71367;DHT22;60030;52.274;8.040;2022-07-15T00:09:36;16.90;99.90
71367;DHT22;60030;52.274;8.040;2022-07-15T00:12:20;16.80;99.90
71367;DHT22;60030;52.274;8.040;2022-07-15T00:14:47;16.90;99.90
71367;DHT22;60030;52.274;8.040;2022-07-15T00:17:16;16.90;99.90
71367;DHT22;60030;52.274;8.040;2022-07-15T00:19:43;16.90;99.90
71367;DHT22;60030;52.274;8.040;2022-07-15T00:22:10;16.80;99.90
71367;DHT22;60030;52.274;8.040;2022-07-15T00:24:38;16.80;99.90
71367;DHT22;60030;52.274;8.040;2022-07-15T00:27:05;16.80;99.90
71367;DHT22;60030;52.274;8.040;2022-07-15T00:29:32;16.70;99.90
71367;DHT22;60030;52.274;8.040;2022-07-15T00:31:59;16.70;99.90
71367;DHT22;60030;52.274;8.040;2022-07-15T00:34:27;16.60;99.90
71367;DHT22;60030;52.274;8.040;2022-07-15T00:36:55;16.60;99.90
71367;DHT22;60030;52.274;8.040;2022-07-15T00:39:22;16.50;99.90
71367;DHT22;60030;52.274;8.040;2022-07-15T00:41:49;16.60;99.90
71367;DHT22;60030;52.274;8.040;2022-07-15T00:44:16;16.50;99.90
71367;DHT22;60030;52.274;8.040;2022-07-15T00:46:43;16.40;99.90
71367;DHT22;60030;52.274;8.040;2022-07-15T00:49:11;16.50;99.90
71367;DHT22;60030;52.274;8.040;2022-07-15T00:51:42;16.50;99.90
71367;DHT22;60030;52.274;8.040;2022-07-15T00:54:10;16.40;99.90
71367;DHT22;60030;52.274;8.040;2022-07-15T00:56:41;16.40;99.90
71367;DHT22;60030;52.274;8.040;2022-07-15T00:59:12;16.40;99.90
71367;DHT22;60030;52.274;8.040;2022-07-15T01:01:41;16.30;99.90
71367;DHT22;60030;52.274;8.040;2022-07-15T01:04:10;16.30;99.90
71367;DHT22;60030;52.274;8.040;2022-07-15T01:06:40;16.20;99.90
71367;DHT22;60030;52.274;8.040;2022-07-15T01:09:08;16.10;99.90
71367;DHT22;60030;52.274;8.040;2022-07-15T01:11:37;16.20;99.90
71367;DHT22;60030;52.274;8.040;2022-07-15T01:14:04;16.20;99.90
71367;DHT22;60030;52.274;8.040;2022-07-15T01:16:31;16.20;99.90
71367;DHT22;60030;52.274;8.040;2022-07-15T01:18:59;16.10;99.90
71367;DHT22;60030;52.274;8.040;2022-07-15T01:21:34;16.10;99.90
71367;DHT22;60030;52.274;8.040;2022-07-15T01:24:02;15.90;99.90
71367;DHT22;60030;52.274;8.040;2022-07-15T01:26:40;15.90;99.90
71367;DHT22;60030;52.274;8.040;2022-07-15T01:29:08;15.90;99.90
71367;DHT22;60030;52.274;8.040;2022-07-15T01:31:35;15.80;99.90
71367;DHT22;60030;52.274;8.040;2022-07-15T01:34:03;15.80;99.90
71367;DHT22;60030;52.274;8.040;2022-07-15T01:36:31;15.80;99.90
71367;DHT22;60030;52.274;8.040;2022-07-15T01:39:02;15.70;99.90
71367;DHT22;60030;52.274;8.040;2022-07-15T01:41:29;15.70;99.90
71367;DHT22;60030;52.274;8.040;2022-07-15T01:43:58;15.70;99.90
71367;DHT22;60030;52.274;8.040;2022-07-15T01:46:25;15.70;99.90
71367;DHT22;60030;52.274;8.040;2022-07-15T01:48:53;15.50;99.90
71367;DHT22;60030;52.274;8.040;2022-07-15T01:51:46;15.60;99.90
71367;DHT22;60030;52.274;8.040;2022-07-15T01:54:15;15.50;99.90
71367;DHT22;60030;52.274;8.040;2022-07-15T01:56:42;15.20;99.90
71367;DHT22;60030;52.274;8.040;2022-07-15T01:59:10;15.20;99.90
71367;DHT22;60030;52.274;8.040;2022-07-15T02:01:37;15.30;99.90
71367;DHT22;60030;52.274;8.040;2022-07-15T02:04:11;15.40;99.90
71367;DHT22;60030;52.274;8.040;2022-07-15T02:06:38;15.40;99.90
71367;DHT22;60030;52.274;8.040;2022-07-15T02:09:07;15.40;99.90
71367;DHT22;60030;52.274;8.040;2022-07-15T02:11:40;15.40;99.90
71367;DHT22;60030;52.274;8.040;2022-07-15T02:14:07;15.40;99.90
71367;DHT22;60030;52.274;8.040;2022-07-15T02:16:34;15.40;99.90
71367;DHT22;60030;52.274;8.040;2022-07-15T02:19:06;15.30;99.90
71367;DHT22;60030;52.274;8.040;2022-07-15T02:21:34;15.30;99.90
71367;DHT22;60030;52.274;8.040;2022-07-15T02:24:02;15.20;99.90
71367;DHT22;60030;52.274;8.040;2022-07-15T02:26:29;15.30;99.90
71367;DHT22;60030;52.274;8.040;2022-07-15T02:28:58;15.30;99.90
71367;DHT22;60030;52.274;8.040;2022-07-15T02:31:28;15.20;99.90
71367;DHT22;60030;52.274;8.040;2022-07-15T02:33:56;15.10;99.90
71367;DHT22;60030;52.274;8.040;2022-07-15T02:36:27;15.10;99.90
71367;DHT22;60030;52.274;8.040;2022-07-15T02:38:55;15.10;99.90
71367;DHT22;60030;52.274;8.040;2022-07-15T02:41:23;15.10;99.90
71367;DHT22;60030;52.274;8.040;2022-07-15T02:43:50;15.10;99.90
71367;DHT22;60030;52.274;8.040;2022-07-15T02:46:19;15.10;99.90
71367;DHT22;60030;52.274;8.040;2022-07-15T02:48:46;15.10;99.90
71367;DHT22;60030;52.274;8.040;2022-07-15T02:51:14;15.00;99.90
71367;DHT22;60030;52.274;8.040;2022-07-15T02:53:41;14.90;99.90
71367;DHT22;60030;52.274;8.040;2022-07-15T02:56:13;15.00;99.90
71367;DHT22;60030;52.274;8.040;2022-07-15T02:58:40;15.00;99.90
71367;DHT22;60030;52.274;8.040;2022-07-15T03:01:08;15.00;99.90
71367;DHT22;60030;52.274;8.040;2022-07-15T03:03:38;15.00;99.90
71367;DHT22;60030;52.274;8.040;2022-07-15T03:06:08;15.00;99.90
71367;DHT22;60030;52.274;8.040;2022-07-15T03:08:36;15.10;99.90
71367;DHT22;60030;52.274;8.040;2022-07-15T03:11:04;15.00;99.90
71367;DHT22;60030;52.274;8.040;2022-07-15T03:13:32;15.00;99.90
71367;DHT22;60030;52.274;8.040;2022-07-15T03:15:59;15.10;99.90
71367;DHT22;60030;52.274;8.040;2022-07-15T03:18:26;15.10;99.90
71367;DHT22;60030;52.274;8.040;2022-07-15T03:20:55;15.10;99.90
71367;DHT22;60030;52.274;8.040;2022-07-15T03:23:22;15.10;99.90
71367;DHT22;60030;52.274;8.040;2022-07-15T03:25:51;15.10;99.90
71367;DHT22;60030;52.274;8.040;2022-07-15T03:28:18;15.20;99.90
71367;DHT22;60030;52.274;8.040;2022-07-15T03:30:47;15.20;99.90
71367;DHT22;60030;52.274;8.040;2022-07-15T03:33:15;15.20;99.90
71367;DHT22;60030;52.274;8.040;2022-07-15T03:35:43;15.20;99.90
71367;DHT22;60030;52.274;8.040;2022-07-15T03:38:12;15.20;99.90
71367;DHT22;60030;52.274;8.040;2022-07-15T03:40:39;15.20;99.90
71367;DHT22;60030;52.274;8.040;2022-07-15T03:43:06;15.20;99.90
71367;DHT22;60030;52.274;8.040;2022-07-15T03:45:34;15.20;99.90
71367;DHT22;60030;52.274;8.040;2022-07-15T03:48:02;15.30;99.90
71367;DHT22;60030;52.274;8.040;2022-07-15T03:50:33;15.30;99.90
71367;DHT22;60030;52.274;8.040;2022-07-15T03:53:01;15.30;99.90
71367;DHT22;60030;52.274;8.040;2022-07-15T03:55:29;15.30;99.90
71367;DHT22;60030;52.274;8.040;2022-07-15T03:57:57;15.40;99.90
71367;DHT22;60030;52.274;8.040;2022-07-15T04:00:24;15.40;99.90
71367;DHT22;60030;52.274;8.040;2022-07-15T04:02:51;15.40;99.90
71367;DHT22;60030;52.274;8.040;2022-07-15T04:05:18;15.30;99.90
71367;DHT22;60030;52.274;8.040;2022-07-15T04:07:50;15.30;99.90
71367;DHT22;60030;52.274;8.040;2022-07-15T04:10:17;15.30;99.90
71367;DHT22;60030;52.274;8.040;2022-07-15T04:12:46;15.30;99.90
71367;DHT22;60030;52.274;8.040;2022-07-15T04:15:14;15.40;99.90
71367;DHT22;60030;52.274;8.040;2022-07-15T04:17:44;15.40;99.90
71367;DHT22;60030;52.274;8.040;2022-07-15T04:20:11;15.50;99.90
71367;DHT22;60030;52.274;8.040;2022-07-15T04:22:43;15.60;99.90
71367;DHT22;60030;52.274;8.040;2022-07-15T04:25:14;15.60;99.90
71367;DHT22;60030;52.274;8.040;2022-07-15T04:27:41;15.60;99.90
71367;DHT22;60030;52.274;8.040;2022-07-15T04:30:11;15.50;99.90
71367;DHT22;60030;52.274;8.040;2022-07-15T04:32:46;15.50;99.90
71367;DHT22;60030;52.274;8.040;2022-07-15T04:35:13;15.40;99.90
71367;DHT22;60030;52.274;8.040;2022-07-15T04:37:40;15.50;99.90
71367;DHT22;60030;52.274;8.040;2022-07-15T04:40:08;15.60;99.90
71367;DHT22;60030;52.274;8.040;2022-07-15T04:42:39;15.50;99.90
71367;DHT22;60030;52.274;8.040;2022-07-15T04:45:12;15.50;99.90
71367;DHT22;60030;52.274;8.040;2022-07-15T04:47:41;15.50;99.90
71367;DHT22;60030;52.274;8.040;2022-07-15T04:50:11;15.50;99.90
71367;DHT22;60030;52.274;8.040;2022-07-15T04:52:56;15.60;99.90
71367;DHT22;60030;52.274;8.040;2022-07-15T04:55:24;15.70;99.90
71367;DHT22;60030;52.274;8.040;2022-07-15T04:58:00;15.70;99.90
71367;DHT22;60030;52.274;8.040;2022-07-15T05:00:29;15.70;99.90
71367;DHT22;60030;52.274;8.040;2022-07-15T05:02:56;15.80;99.90
71367;DHT22;60030;52.274;8.040;2022-07-15T05:05:24;15.80;99.90
71367;DHT22;60030;52.274;8.040;2022-07-15T05:07:51;15.90;99.90
71367;DHT22;60030;52.274;8.040;2022-07-15T05:10:19;15.90;99.90
71367;DHT22;60030;52.274;8.040;2022-07-15T05:12:53;15.90;99.90
71367;DHT22;60030;52.274;8.040;2022-07-15T05:15:21;16.00;99.90
71367;DHT22;60030;52.274;8.040;2022-07-15T05:17:51;16.00;99.90
71367;DHT22;60030;52.274;8.040;2022-07-15T05:20:21;16.00;99.90
71367;DHT22;60030;52.274;8.040;2022-07-15T05:22:50;16.10;99.90
71367;DHT22;60030;52.274;8.040;2022-07-15T05:25:18;16.00;99.90
71367;DHT22;60030;52.274;8.040;2022-07-15T05:27:45;16.00;99.90
71367;DHT22;60030;52.274;8.040;2022-07-15T05:30:15;16.10;99.90
71367;DHT22;60030;52.274;8.040;2022-07-15T05:32:43;16.00;99.90
71367;DHT22;60030;52.274;8.040;2022-07-15T05:35:18;16.10;99.90
71367;DHT22;60030;52.274;8.040;2022-07-15T05:37:47;16.20;99.90
71367;DHT22;60030;52.274;8.040;2022-07-15T05:40:21;16.10;99.90
71367;DHT22;60030;52.274;8.040;2022-07-15T05:42:51;16.00;99.90
71367;DHT22;60030;52.274;8.040;2022-07-15T05:45:19;16.10;99.90
71367;DHT22;60030;52.274;8.040;2022-07-15T05:47:56;16.20;99.90
71367;DHT22;60030;52.274;8.040;2022-07-15T05:50:27;16.20;99.90
71367;DHT22;60030;52.274;8.040;2022-07-15T05:52:58;16.30;99.90
71367;DHT22;60030;52.274;8.040;2022-07-15T05:55:26;16.30;99.90
71367;DHT22;60030;52.274;8.040;2022-07-15T05:57:54;16.40;99.90
71367;DHT22;60030;52.274;8.040;2022-07-15T06:00:25;16.40;99.90
71367;DHT22;60030;52.274;8.040;2022-07-15T06:02:53;16.40;99.90
71367;DHT22;60030;52.274;8.040;2022-07-15T06:05:27;16.30;99.90
71367;DHT22;60030;52.274;8.040;2022-07-15T06:07:57;16.40;99.90
71367;DHT22;60030;52.274;8.040;2022-07-15T06:10:30;16.40;99.90
71367;DHT22;60030;52.274;8.040;2022-07-15T06:12:57;16.40;99.90
71367;DHT22;60030;52.274;8.040;2022-07-15T06:15:24;16.40;99.90
71367;DHT22;60030;52.274;8.040;2022-07-15T06:17:52;16.30;99.90
71367;DHT22;60030;52.274;8.040;2022-07-15T06:20:22;16.40;99.90
71367;DHT22;60030;52.274;8.040;2022-07-15T06:22:51;16.30;99.90
71367;DHT22;60030;52.274;8.040;2022-07-15T06:25:20;16.30;99.90
71367;DHT22;60030;52.274;8.040;2022-07-15T06:27:48;16.40;99.90
71367;DHT22;60030;52.274;8.040;2022-07-15T06:30:16;16.50;99.90
71367;DHT22;60030;52.274;8.040;2022-07-15T06:32:43;16.60;99.90
71367;DHT22;60030;52.274;8.040;2022-07-15T06:35:10;16.50;99.90
71367;DHT22;60030;52.274;8.040;2022-07-15T06:37:38;16.60;99.90
71367;DHT22;60030;52.274;8.040;2022-07-15T06:40:08;16.70;99.90
71367;DHT22;60030;52.274;8.040;2022-07-15T06:42:35;16.70;99.90
71367;DHT22;60030;52.274;8.040;2022-07-15T06:45:07;16.80;99.90
71367;DHT22;60030;52.274;8.040;2022-07-15T06:47:35;16.90;99.90
71367;DHT22;60030;52.274;8.040;2022-07-15T06:50:03;16.60;99.90
71367;DHT22;60030;52.274;8.040;2022-07-15T06:52:30;16.60;99.90
71367;DHT22;60030;52.274;8.040;2022-07-15T06:54:57;16.80;99.90
71367;DHT22;60030;52.274;8.040;2022-07-15T06:57:26;16.90;99.90
71367;DHT22;60030;52.274;8.040;2022-07-15T06:59:55;16.80;99.90
71367;DHT22;60030;52.274;8.040;2022-07-15T07:02:23;16.80;99.90
71367;DHT22;60030;52.274;8.040;2022-07-15T07:04:50;16.70;99.90
71367;DHT22;60030;52.274;8.040;2022-07-15T07:07:18;16.80;99.90
71367;DHT22;60030;52.274;8.040;2022-07-15T07:09:45;16.90;99.90
71367;DHT22;60030;52.274;8.040;2022-07-15T07:12:12;16.90;99.90
71367;DHT22;60030;52.274;8.040;2022-07-15T07:14:40;16.90;99.90
71367;DHT22;60030;52.274;8.040;2022-07-15T07:17:08;17.10;99.90
71367;DHT22;60030;52.274;8.040;2022-07-15T07:19:35;17.20;99.90
71367;DHT22;60030;52.274;8.040;2022-07-15T07:22:02;17.40;99.90
71367;DHT22;60030;52.274;8.040;2022-07-15T07:24:30;17.50;99.90
71367;DHT22;60030;52.274;8.040;2022-07-15T07:26:57;17.50;99.90
71367;DHT22;60030;52.274;8.040;2022-07-15T07:29:24;17.60;99.90
71367;DHT22;60030;52.274;8.040;2022-07-15T07:31:52;17.70;99.90
71367;DHT22;60030;52.274;8.040;2022-07-15T07:34:20;17.80;99.90
71367;DHT22;60030;52.274;8.040;2022-07-15T07:36:47;17.80;99.90
71367;DHT22;60030;52.274;8.040;2022-07-15T07:39:14;18.00;99.90
71367;DHT22;60030;52.274;8.040;2022-07-15T07:41:41;18.10;99.90
71367;DHT22;60030;52.274;8.040;2022-07-15T07:44:08;18.10;99.90
71367;DHT22;60030;52.274;8.040;2022-07-15T07:46:35;18.00;99.90
71367;DHT22;60030;52.274;8.040;2022-07-15T07:49:04;18.00;99.90
71367;DHT22;60030;52.274;8.040;2022-07-15T07:51:31;17.90;99.90
71367;DHT22;60030;52.274;8.040;2022-07-15T07:53:58;17.90;99.90
71367;DHT22;60030;52.274;8.040;2022-07-15T07:56:25;18.20;99.90
71367;DHT22;60030;52.274;8.040;2022-07-15T07:58:52;18.40;99.90
71367;DHT22;60030;52.274;8.040;2022-07-15T08:01:19;18.50;99.90
71367;DHT22;60030;52.274;8.040;2022-07-15T08:03:46;18.60;99.90
71367;DHT22;60030;52.274;8.040;2022-07-15T08:06:15;18.60;99.70
71367;DHT22;60030;52.274;8.040;2022-07-15T08:08:42;18.50;99.90
71367;DHT22;60030;52.274;8.040;2022-07-15T08:11:09;18.50;99.90
71367;DHT22;60030;52.274;8.040;2022-07-15T08:13:37;18.50;99.90
71367;DHT22;60030;52.274;8.040;2022-07-15T08:16:04;18.50;99.90
71367;DHT22;60030;52.274;8.040;2022-07-15T08:18:32;18.70;99.90
71367;DHT22;60030;52.274;8.040;2022-07-15T08:20:59;18.90;99.70
71367;DHT22;60030;52.274;8.040;2022-07-15T08:23:30;18.90;99.00
71367;DHT22;60030;52.274;8.040;2022-07-15T08:25:58;18.90;98.70
71367;DHT22;60030;52.274;8.040;2022-07-15T08:28:26;19.10;98.90
71367;DHT22;60030;52.274;8.040;2022-07-15T08:30:53;19.10;97.80
71367;DHT22;60030;52.274;8.040;2022-07-15T08:33:20;19.10;97.80
71367;DHT22;60030;52.274;8.040;2022-07-15T08:35:47;19.20;97.40
71367;DHT22;60030;52.274;8.040;2022-07-15T08:38:14;19.20;97.50
71367;DHT22;60030;52.274;8.040;2022-07-15T08:40:43;19.10;98.00
71367;DHT22;60030;52.274;8.040;2022-07-15T08:43:11;18.90;97.70
71367;DHT22;60030;52.274;8.040;2022-07-15T08:45:39;18.70;97.90
71367;DHT22;60030;52.274;8.040;2022-07-15T08:48:08;18.60;97.70
71367;DHT22;60030;52.274;8.040;2022-07-15T08:50:35;18.60;97.90
71367;DHT22;60030;52.274;8.040;2022-07-15T08:53:03;18.80;98.20
71367;DHT22;60030;52.274;8.040;2022-07-15T08:55:31;18.90;97.50
71367;DHT22;60030;52.274;8.040;2022-07-15T08:58:00;19.10;96.80
71367;DHT22;60030;52.274;8.040;2022-07-15T09:00:28;19.20;95.90
71367;DHT22;60030;52.274;8.040;2022-07-15T09:02:59;19.20;95.70
71367;DHT22;60030;52.274;8.040;2022-07-15T09:05:28;19.30;95.20
71367;DHT22;60030;52.274;8.040;2022-07-15T09:08:01;19.20;95.00
71367;DHT22;60030;52.274;8.040;2022-07-15T09:10:44;19.70;94.30
71367;DHT22;60030;52.274;8.040;2022-07-15T09:13:22;19.80;93.60
71367;DHT22;60030;52.274;8.040;2022-07-15T09:15:50;20.00;92.30
71367;DHT22;60030;52.274;8.040;2022-07-15T09:18:19;19.80;91.90
71367;DHT22;60030;52.274;8.040;2022-07-15T09:20:47;19.60;92.60
71367;DHT22;60030;52.274;8.040;2022-07-15T09:23:17;19.60;92.40
71367;DHT22;60030;52.274;8.040;2022-07-15T09:25:47;19.60;92.30
71367;DHT22;60030;52.274;8.040;2022-07-15T09:28:16;19.50;93.00
71367;DHT22;60030;52.274;8.040;2022-07-15T09:30:45;19.40;93.30
71367;DHT22;60030;52.274;8.040;2022-07-15T09:33:31;19.70;93.20
71367;DHT22;60030;52.274;8.040;2022-07-15T09:36:08;19.80;92.80
71367;DHT22;60030;52.274;8.040;2022-07-15T09:38:39;19.90;92.50
71367;DHT22;60030;52.274;8.040;2022-07-15T09:41:11;20.00;92.00
71367;DHT22;60030;52.274;8.040;2022-07-15T09:43:50;19.90;91.50
71367;DHT22;60030;52.274;8.040;2022-07-15T09:46:19;20.10;91.60
71367;DHT22;60030;52.274;8.040;2022-07-15T09:48:48;20.10;90.80
71367;DHT22;60030;52.274;8.040;2022-07-15T09:51:16;20.10;90.80
71367;DHT22;60030;52.274;8.040;2022-07-15T09:53:44;20.10;90.50
71367;DHT22;60030;52.274;8.040;2022-07-15T09:56:13;20.10;90.30
71367;DHT22;60030;52.274;8.040;2022-07-15T09:58:42;20.00;91.10
71367;DHT22;60030;52.274;8.040;2022-07-15T10:01:11;19.90;91.50
71367;DHT22;60030;52.274;8.040;2022-07-15T10:03:39;20.00;91.10
71367;DHT22;60030;52.274;8.040;2022-07-15T10:06:08;19.90;91.60
71367;DHT22;60030;52.274;8.040;2022-07-15T10:08:36;20.00;91.10
71367;DHT22;60030;52.274;8.040;2022-07-15T10:11:08;20.20;90.00
71367;DHT22;60030;52.274;8.040;2022-07-15T10:13:52;20.40;88.80
71367;DHT22;60030;52.274;8.040;2022-07-15T10:16:44;20.50;88.90
71367;DHT22;60030;52.274;8.040;2022-07-15T10:19:19;20.80;87.80
71367;DHT22;60030;52.274;8.040;2022-07-15T10:21:57;20.80;87.60
71367;DHT22;60030;52.274;8.040;2022-07-15T10:24:45;20.80;87.80
71367;DHT22;60030;52.274;8.040;2022-07-15T10:27:30;20.70;87.40
71367;DHT22;60030;52.274;8.040;2022-07-15T10:30:03;20.60;87.40
71367;DHT22;60030;52.274;8.040;2022-07-15T10:33:09;20.20;88.00
71367;DHT22;60030;52.274;8.040;2022-07-15T10:35:44;20.30;87.20
71367;DHT22;60030;52.274;8.040;2022-07-15T10:38:35;20.40;87.70
71367;DHT22;60030;52.274;8.040;2022-07-15T10:41:05;20.40;87.20
71367;DHT22;60030;52.274;8.040;2022-07-15T10:43:44;20.40;88.50
71367;DHT22;60030;52.274;8.040;2022-07-15T10:46:33;20.40;87.60
71367;DHT22;60030;52.274;8.040;2022-07-15T10:49:30;20.70;87.80
71367;DHT22;60030;52.274;8.040;2022-07-15T10:52:14;20.90;87.60
71367;DHT22;60030;52.274;8.040;2022-07-15T10:54:44;21.40;87.40
71367;DHT22;60030;52.274;8.040;2022-07-15T10:57:12;21.60;86.50
71367;DHT22;60030;52.274;8.040;2022-07-15T10:59:50;21.80;84.80
71367;DHT22;60030;52.274;8.040;2022-07-15T11:02:19;21.60;84.90
71367;DHT22;60030;52.274;8.040;2022-07-15T11:04:49;21.50;85.20
71367;DHT22;60030;52.274;8.040;2022-07-15T11:07:27;21.30;84.50
71367;DHT22;60030;52.274;8.040;2022-07-15T11:10:12;21.20;83.90
71367;DHT22;60030;52.274;8.040;2022-07-15T11:13:12;21.10;84.20
71367;DHT22;60030;52.274;8.040;2022-07-15T11:15:40;21.40;83.50
71367;DHT22;60030;52.274;8.040;2022-07-15T11:18:07;21.80;82.80
71367;DHT22;60030;52.274;8.040;2022-07-15T11:20:37;22.40;78.90
71367;DHT22;60030;52.274;8.040;2022-07-15T11:23:07;22.40;78.20
71367;DHT22;60030;52.274;8.040;2022-07-15T11:25:36;22.20;79.00
71367;DHT22;60030;52.274;8.040;2022-07-15T11:28:07;22.10;78.50
71367;DHT22;60030;52.274;8.040;2022-07-15T11:30:37;21.80;79.00
71367;DHT22;60030;52.274;8.040;2022-07-15T11:33:09;21.70;78.90
71367;DHT22;60030;52.274;8.040;2022-07-15T11:35:49;21.50;77.70
71367;DHT22;60030;52.274;8.040;2022-07-15T11:38:18;21.40;78.00
71367;DHT22;60030;52.274;8.040;2022-07-15T11:40:48;21.60;77.80
71367;DHT22;60030;52.274;8.040;2022-07-15T11:43:34;21.40;77.50
71367;DHT22;60030;52.274;8.040;2022-07-15T11:46:19;20.90;80.00
71367;DHT22;60030;52.274;8.040;2022-07-15T11:48:47;20.80;79.20
71367;DHT22;60030;52.274;8.040;2022-07-15T11:51:16;20.80;79.20
71367;DHT22;60030;52.274;8.040;2022-07-15T11:53:44;20.60;79.80
71367;DHT22;60030;52.274;8.040;2022-07-15T11:56:14;20.50;80.60
71367;DHT22;60030;52.274;8.040;2022-07-15T11:58:43;20.40;81.20
71367;DHT22;60030;52.274;8.040;2022-07-15T12:01:13;20.40;81.00
71367;DHT22;60030;52.274;8.040;2022-07-15T12:03:42;20.40;81.30
71367;DHT22;60030;52.274;8.040;2022-07-15T12:06:13;20.30;81.00
71367;DHT22;60030;52.274;8.040;2022-07-15T12:08:44;20.20;82.20
71367;DHT22;60030;52.274;8.040;2022-07-15T12:11:21;20.30;82.20
71367;DHT22;60030;52.274;8.040;2022-07-15T12:13:53;20.30;82.30
71367;DHT22;60030;52.274;8.040;2022-07-15T12:16:24;20.50;82.20
71367;DHT22;60030;52.274;8.040;2022-07-15T12:18:54;20.60;82.10
71367;DHT22;60030;52.274;8.040;2022-07-15T12:21:21;20.90;81.30
71367;DHT22;60030;52.274;8.040;2022-07-15T12:24:05;21.20;80.40
71367;DHT22;60030;52.274;8.040;2022-07-15T12:26:34;21.70;79.80
71367;DHT22;60030;52.274;8.040;2022-07-15T12:29:06;22.10;78.30
71367;DHT22;60030;52.274;8.040;2022-07-15T12:31:35;22.30;77.00
71367;DHT22;60030;52.274;8.040;2022-07-15T12:34:03;22.40;75.90
71367;DHT22;60030;52.274;8.040;2022-07-15T12:36:33;22.70;75.50
71367;DHT22;60030;52.274;8.040;2022-07-15T12:39:08;22.70;74.80
71367;DHT22;60030;52.274;8.040;2022-07-15T12:41:37;22.70;73.70
71367;DHT22;60030;52.274;8.040;2022-07-15T12:44:05;22.50;74.10
71367;DHT22;60030;52.274;8.040;2022-07-15T12:46:51;22.90;74.00
71367;DHT22;60030;52.274;8.040;2022-07-15T12:49:42;23.00;73.30
71367;DHT22;60030;52.274;8.040;2022-07-15T12:52:23;22.70;73.50
71367;DHT22;60030;52.274;8.040;2022-07-15T12:54:54;22.70;73.20
71367;DHT22;60030;52.274;8.040;2022-07-15T12:57:28;22.70;73.60
71367;DHT22;60030;52.274;8.040;2022-07-15T12:59:58;22.60;73.20
71367;DHT22;60030;52.274;8.040;2022-07-15T13:02:26;22.40;73.10
71367;DHT22;60030;52.274;8.040;2022-07-15T13:04:53;22.50;73.50
71367;DHT22;60030;52.274;8.040;2022-07-15T13:07:21;22.60;73.30
71367;DHT22;60030;52.274;8.040;2022-07-15T13:09:48;22.10;72.70
71367;DHT22;60030;52.274;8.040;2022-07-15T13:12:16;21.90;74.40
71367;DHT22;60030;52.274;8.040;2022-07-15T13:14:44;21.90;74.10
71367;DHT22;60030;52.274;8.040;2022-07-15T13:17:11;21.90;73.70
71367;DHT22;60030;52.274;8.040;2022-07-15T13:19:38;22.10;74.50
71367;DHT22;60030;52.274;8.040;2022-07-15T13:22:05;22.30;72.90
71367;DHT22;60030;52.274;8.040;2022-07-15T13:24:32;22.60;72.30
71367;DHT22;60030;52.274;8.040;2022-07-15T13:27:00;22.80;70.80
71367;DHT22;60030;52.274;8.040;2022-07-15T13:29:28;22.60;71.80
71367;DHT22;60030;52.274;8.040;2022-07-15T13:31:55;23.20;71.90
71367;DHT22;60030;52.274;8.040;2022-07-15T13:34:22;24.20;68.40
71367;DHT22;60030;52.274;8.040;2022-07-15T13:36:49;24.60;64.00
71367;DHT22;60030;52.274;8.040;2022-07-15T13:39:16;24.20;62.70
71367;DHT22;60030;52.274;8.040;2022-07-15T13:41:43;23.80;63.80
71367;DHT22;60030;52.274;8.040;2022-07-15T13:44:10;23.40;64.70
71367;DHT22;60030;52.274;8.040;2022-07-15T13:46:39;23.20;65.80
71367;DHT22;60030;52.274;8.040;2022-07-15T13:49:06;23.60;65.90
71367;DHT22;60030;52.274;8.040;2022-07-15T13:51:33;25.40;61.50
71367;DHT22;60030;52.274;8.040;2022-07-15T13:53:59;27.10;57.40
71367;DHT22;60030;52.274;8.040;2022-07-15T13:56:26;28.20;55.50
71367;DHT22;60030;52.274;8.040;2022-07-15T13:58:53;27.90;54.20
71367;DHT22;60030;52.274;8.040;2022-07-15T14:01:24;27.80;53.70
71367;DHT22;60030;52.274;8.040;2022-07-15T14:03:53;27.90;53.00
71367;DHT22;60030;52.274;8.040;2022-07-15T14:06:21;27.90;51.90
71367;DHT22;60030;52.274;8.040;2022-07-15T14:08:48;27.70;51.80
71367;DHT22;60030;52.274;8.040;2022-07-15T14:11:15;27.90;51.70
71367;DHT22;60030;52.274;8.040;2022-07-15T14:13:43;27.20;52.50
71367;DHT22;60030;52.274;8.040;2022-07-15T14:16:10;26.30;54.10
71367;DHT22;60030;52.274;8.040;2022-07-15T14:18:37;26.20;55.00
71367;DHT22;60030;52.274;8.040;2022-07-15T14:21:14;25.90;54.80
71367;DHT22;60030;52.274;8.040;2022-07-15T14:23:42;25.20;56.60
71367;DHT22;60030;52.274;8.040;2022-07-15T14:26:09;24.60;57.10
71367;DHT22;60030;52.274;8.040;2022-07-15T14:28:37;24.50;57.50
71367;DHT22;60030;52.274;8.040;2022-07-15T14:31:05;24.60;57.10
71367;DHT22;60030;52.274;8.040;2022-07-15T14:33:32;24.80;57.10
71367;DHT22;60030;52.274;8.040;2022-07-15T14:36:00;24.50;55.30
71367;DHT22;60030;52.274;8.040;2022-07-15T14:38:29;24.40;55.60
71367;DHT22;60030;52.274;8.040;2022-07-15T14:40:57;24.40;56.10
71367;DHT22;60030;52.274;8.040;2022-07-15T14:43:25;24.60;55.60
71367;DHT22;60030;52.274;8.040;2022-07-15T14:45:52;24.70;55.70
71367;DHT22;60030;52.274;8.040;2022-07-15T14:48:19;24.60;56.10
71367;DHT22;60030;52.274;8.040;2022-07-15T14:50:46;24.50;56.90
71367;DHT22;60030;52.274;8.040;2022-07-15T14:53:13;24.20;57.20
71367;DHT22;60030;52.274;8.040;2022-07-15T14:55:41;23.90;58.50
71367;DHT22;60030;52.274;8.040;2022-07-15T14:58:09;23.60;59.00
71367;DHT22;60030;52.274;8.040;2022-07-15T15:00:38;23.50;63.20
71367;DHT22;60030;52.274;8.040;2022-07-15T15:03:05;23.70;61.60
71367;DHT22;60030;52.274;8.040;2022-07-15T15:05:32;23.80;60.40
71367;DHT22;60030;52.274;8.040;2022-07-15T15:07:59;23.80;60.40
71367;DHT22;60030;52.274;8.040;2022-07-15T15:10:27;23.60;60.00
71367;DHT22;60030;52.274;8.040;2022-07-15T15:12:55;23.30;59.40
71367;DHT22;60030;52.274;8.040;2022-07-15T15:15:22;23.50;58.30
71367;DHT22;60030;52.274;8.040;2022-07-15T15:17:50;23.20;57.80
71367;DHT22;60030;52.274;8.040;2022-07-15T15:20:17;23.40;58.10
71367;DHT22;60030;52.274;8.040;2022-07-15T15:22:45;23.60;57.80
71367;DHT22;60030;52.274;8.040;2022-07-15T15:25:12;23.60;57.80
71367;DHT22;60030;52.274;8.040;2022-07-15T15:27:40;23.30;57.90
71367;DHT22;60030;52.274;8.040;2022-07-15T15:30:08;23.50;58.00
71367;DHT22;60030;52.274;8.040;2022-07-15T15:32:36;23.40;58.00
71367;DHT22;60030;52.274;8.040;2022-07-15T15:35:03;23.70;57.60
71367;DHT22;60030;52.274;8.040;2022-07-15T15:37:31;24.60;56.90
71367;DHT22;60030;52.274;8.040;2022-07-15T15:39:58;26.20;54.20
71367;DHT22;60030;52.274;8.040;2022-07-15T15:42:25;27.50;52.20
71367;DHT22;60030;52.274;8.040;2022-07-15T15:44:52;28.50;50.80
71367;DHT22;60030;52.274;8.040;2022-07-15T15:47:21;29.10;48.90